Terminal Aerodrome Forecast
Issued by NWS

Home | Current Version | Previous Version | Text Only | Print | Product List | Glossary On
Versions: 1 2 3 4 5 6 7 8 9 10 11 12 13 14 15 16 17
000
FTUS45 KABQ 230630 AAA
TAFAEG
TAF AMD
KAEG 230630Z 2307/2406 30005KT P6SM SKC
     FM231800 18010KT P6SM SCT090
     FM232100 20015G24KT P6SM SCT100
     FM240200 27017KT P6SM BKN070
      AMD NOT SKED=

USA.gov is the U.S. government's official web portal to all federal, state and local government web resources and services.